sensor_id;sensor_type;location;lat;lon;timestamp;P1;durP1;ratioP1;P2;durP2;ratioP2
40537;SDS011;27925;41.874;12.526;2022-12-29T00:00:05;38.97;;;25.65;;
40537;SDS011;27925;41.874;12.526;2022-12-29T00:02:32;37.67;;;25.00;;
40537;SDS011;27925;41.874;12.526;2022-12-29T00:04:57;37.10;;;25.33;;
40537;SDS011;27925;41.874;12.526;2022-12-29T00:07:23;34.35;;;24.63;;
40537;SDS011;27925;41.874;12.526;2022-12-29T00:09:49;34.83;;;23.10;;
40537;SDS011;27925;41.874;12.526;2022-12-29T00:12:14;35.28;;;23.65;;
40537;SDS011;27925;41.874;12.526;2022-12-29T00:14:40;35.15;;;22.77;;
40537;SDS011;27925;41.874;12.526;2022-12-29T00:19:50;35.85;;;23.65;;
40537;SDS011;27925;41.874;12.526;2022-12-29T00:22:35;33.22;;;23.55;;
40537;SDS011;27925;41.874;12.526;2022-12-29T00:28:04;33.10;;;24.00;;
40537;SDS011;27925;41.874;12.526;2022-12-29T00:30:50;36.22;;;22.63;;
40537;SDS011;27925;41.874;12.526;2022-12-29T00:33:35;28.52;;;21.63;;
40537;SDS011;27925;41.874;12.526;2022-12-29T00:36:32;30.10;;;21.92;;
40537;SDS011;27925;41.874;12.526;2022-12-29T00:39:07;29.35;;;21.38;;
40537;SDS011;27925;41.874;12.526;2022-12-29T00:42:02;29.30;;;21.67;;
40537;SDS011;27925;41.874;12.526;2022-12-29T00:45:04;30.70;;;21.35;;
40537;SDS011;27925;41.874;12.526;2022-12-29T00:47:31;29.67;;;21.38;;
40537;SDS011;27925;41.874;12.526;2022-12-29T00:49:56;32.45;;;21.27;;
40537;SDS011;27925;41.874;12.526;2022-12-29T00:52:22;26.23;;;20.55;;
40537;SDS011;27925;41.874;12.526;2022-12-29T00:54:47;30.98;;;20.00;;
40537;SDS011;27925;41.874;12.526;2022-12-29T00:57:13;28.42;;;20.48;;
40537;SDS011;27925;41.874;12.526;2022-12-29T00:59:40;28.98;;;19.60;;
40537;SDS011;27925;41.874;12.526;2022-12-29T01:02:08;29.33;;;20.10;;
40537;SDS011;27925;41.874;12.526;2022-12-29T01:04:34;30.83;;;20.02;;
40537;SDS011;27925;41.874;12.526;2022-12-29T01:07:00;25.50;;;18.65;;
40537;SDS011;27925;41.874;12.526;2022-12-29T01:09:26;29.65;;;19.17;;
40537;SDS011;27925;41.874;12.526;2022-12-29T01:12:10;25.35;;;18.50;;
40537;SDS011;27925;41.874;12.526;2022-12-29T01:14:36;29.92;;;18.45;;
40537;SDS011;27925;41.874;12.526;2022-12-29T01:17:03;31.67;;;18.65;;
40537;SDS011;27925;41.874;12.526;2022-12-29T01:19:29;26.52;;;17.88;;
40537;SDS011;27925;41.874;12.526;2022-12-29T01:21:55;26.45;;;17.90;;
40537;SDS011;27925;41.874;12.526;2022-12-29T01:24:21;23.77;;;17.15;;
40537;SDS011;27925;41.874;12.526;2022-12-29T01:26:47;22.45;;;16.60;;
40537;SDS011;27925;41.874;12.526;2022-12-29T01:29:14;28.17;;;16.92;;
40537;SDS011;27925;41.874;12.526;2022-12-29T01:31:39;24.17;;;16.23;;
40537;SDS011;27925;41.874;12.526;2022-12-29T01:34:05;28.83;;;17.55;;
40537;SDS011;27925;41.874;12.526;2022-12-29T01:36:32;24.80;;;16.92;;
40537;SDS011;27925;41.874;12.526;2022-12-29T01:38:58;28.92;;;16.98;;
40537;SDS011;27925;41.874;12.526;2022-12-29T01:41:24;28.08;;;16.92;;
40537;SDS011;27925;41.874;12.526;2022-12-29T01:46:39;23.25;;;15.82;;
40537;SDS011;27925;41.874;12.526;2022-12-29T01:49:11;24.70;;;16.20;;
40537;SDS011;27925;41.874;12.526;2022-12-29T01:51:57;22.45;;;15.48;;
40537;SDS011;27925;41.874;12.526;2022-12-29T01:54:36;21.33;;;15.85;;
40537;SDS011;27925;41.874;12.526;2022-12-29T01:57:13;25.85;;;15.50;;
40537;SDS011;27925;41.874;12.526;2022-12-29T01:59:43;25.17;;;15.48;;
40537;SDS011;27925;41.874;12.526;2022-12-29T02:02:15;20.75;;;15.95;;
40537;SDS011;27925;41.874;12.526;2022-12-29T02:04:41;23.35;;;14.10;;
40537;SDS011;27925;41.874;12.526;2022-12-29T02:07:19;22.80;;;14.45;;
40537;SDS011;27925;41.874;12.526;2022-12-29T02:09:48;25.75;;;15.43;;
40537;SDS011;27925;41.874;12.526;2022-12-29T02:12:19;23.35;;;15.90;;
40537;SDS011;27925;41.874;12.526;2022-12-29T02:14:46;26.70;;;17.60;;
40537;SDS011;27925;41.874;12.526;2022-12-29T02:37:10;27.45;;;17.48;;
40537;SDS011;27925;41.874;12.526;2022-12-29T02:39:56;25.85;;;16.52;;
40537;SDS011;27925;41.874;12.526;2022-12-29T02:45:53;24.17;;;17.05;;
40537;SDS011;27925;41.874;12.526;2022-12-29T02:48:35;27.70;;;17.55;;
40537;SDS011;27925;41.874;12.526;2022-12-29T02:51:26;27.92;;;19.20;;
40537;SDS011;27925;41.874;12.526;2022-12-29T02:53:57;23.95;;;18.30;;
40537;SDS011;27925;41.874;12.526;2022-12-29T02:56:42;28.90;;;18.02;;
40537;SDS011;27925;41.874;12.526;2022-12-29T02:59:08;27.33;;;18.63;;
40537;SDS011;27925;41.874;12.526;2022-12-29T03:10:17;24.73;;;18.13;;
40537;SDS011;27925;41.874;12.526;2022-12-29T03:12:49;25.02;;;18.95;;
40537;SDS011;27925;41.874;12.526;2022-12-29T03:15:46;24.48;;;18.05;;
40537;SDS011;27925;41.874;12.526;2022-12-29T03:21:11;27.92;;;19.83;;
40537;SDS011;27925;41.874;12.526;2022-12-29T03:24:15;26.83;;;18.85;;
40537;SDS011;27925;41.874;12.526;2022-12-29T03:26:46;24.27;;;18.90;;
40537;SDS011;27925;41.874;12.526;2022-12-29T03:29:14;28.77;;;19.42;;
40537;SDS011;27925;41.874;12.526;2022-12-29T03:31:43;27.20;;;19.13;;
40537;SDS011;27925;41.874;12.526;2022-12-29T03:34:11;27.52;;;19.38;;
40537;SDS011;27925;41.874;12.526;2022-12-29T03:36:42;26.67;;;18.35;;
40537;SDS011;27925;41.874;12.526;2022-12-29T03:39:14;27.67;;;19.00;;
40537;SDS011;27925;41.874;12.526;2022-12-29T03:41:42;26.30;;;18.92;;
40537;SDS011;27925;41.874;12.526;2022-12-29T03:44:10;26.00;;;18.42;;
40537;SDS011;27925;41.874;12.526;2022-12-29T03:46:37;25.90;;;18.55;;
40537;SDS011;27925;41.874;12.526;2022-12-29T03:49:03;29.27;;;18.02;;
40537;SDS011;27925;41.874;12.526;2022-12-29T03:51:28;26.38;;;18.23;;
40537;SDS011;27925;41.874;12.526;2022-12-29T03:53:54;24.40;;;17.52;;
40537;SDS011;27925;41.874;12.526;2022-12-29T03:56:20;24.10;;;17.65;;
40537;SDS011;27925;41.874;12.526;2022-12-29T03:58:46;27.95;;;19.63;;
40537;SDS011;27925;41.874;12.526;2022-12-29T04:01:11;27.02;;;20.08;;
40537;SDS011;27925;41.874;12.526;2022-12-29T04:03:37;30.02;;;20.83;;
40537;SDS011;27925;41.874;12.526;2022-12-29T04:06:03;28.20;;;18.88;;
40537;SDS011;27925;41.874;12.526;2022-12-29T04:08:29;29.25;;;20.27;;
40537;SDS011;27925;41.874;12.526;2022-12-29T04:10:55;31.23;;;21.15;;
40537;SDS011;27925;41.874;12.526;2022-12-29T04:13:21;25.17;;;19.45;;
40537;SDS011;27925;41.874;12.526;2022-12-29T04:15:46;28.35;;;21.23;;
40537;SDS011;27925;41.874;12.526;2022-12-29T04:18:12;28.88;;;19.08;;
40537;SDS011;27925;41.874;12.526;2022-12-29T04:20:38;25.58;;;19.02;;
40537;SDS011;27925;41.874;12.526;2022-12-29T04:25:48;29.05;;;19.15;;
40537;SDS011;27925;41.874;12.526;2022-12-29T04:28:14;25.83;;;19.42;;
40537;SDS011;27925;41.874;12.526;2022-12-29T04:30:41;26.25;;;19.00;;
40537;SDS011;27925;41.874;12.526;2022-12-29T04:33:07;29.00;;;19.27;;
40537;SDS011;27925;41.874;12.526;2022-12-29T04:35:33;29.20;;;19.38;;
40537;SDS011;27925;41.874;12.526;2022-12-29T04:37:59;23.88;;;17.60;;
40537;SDS011;27925;41.874;12.526;2022-12-29T04:40:25;24.10;;;17.52;;
40537;SDS011;27925;41.874;12.526;2022-12-29T04:42:50;25.30;;;17.92;;
40537;SDS011;27925;41.874;12.526;2022-12-29T04:45:16;26.45;;;19.42;;
40537;SDS011;27925;41.874;12.526;2022-12-29T04:47:42;27.13;;;19.27;;
40537;SDS011;27925;41.874;12.526;2022-12-29T04:50:08;30.17;;;20.48;;
40537;SDS011;27925;41.874;12.526;2022-12-29T04:52:34;29.60;;;19.73;;
40537;SDS011;27925;41.874;12.526;2022-12-29T04:55:00;26.27;;;18.70;;
40537;SDS011;27925;41.874;12.526;2022-12-29T04:57:26;26.45;;;18.42;;
40537;SDS011;27925;41.874;12.526;2022-12-29T04:59:52;27.60;;;19.65;;
40537;SDS011;27925;41.874;12.526;2022-12-29T05:02:17;24.10;;;19.02;;
40537;SDS011;27925;41.874;12.526;2022-12-29T05:04:43;25.67;;;18.50;;
40537;SDS011;27925;41.874;12.526;2022-12-29T05:07:09;28.35;;;18.05;;
40537;SDS011;27925;41.874;12.526;2022-12-29T05:09:35;28.05;;;19.70;;
40537;SDS011;27925;41.874;12.526;2022-12-29T05:12:01;25.88;;;18.63;;
40537;SDS011;27925;41.874;12.526;2022-12-29T05:14:26;26.33;;;19.70;;
40537;SDS011;27925;41.874;12.526;2022-12-29T05:16:52;28.60;;;18.55;;
40537;SDS011;27925;41.874;12.526;2022-12-29T05:19:18;25.27;;;19.67;;
40537;SDS011;27925;41.874;12.526;2022-12-29T05:21:43;27.45;;;20.45;;
40537;SDS011;27925;41.874;12.526;2022-12-29T05:24:09;29.10;;;19.83;;
40537;SDS011;27925;41.874;12.526;2022-12-29T05:26:35;27.95;;;18.77;;
40537;SDS011;27925;41.874;12.526;2022-12-29T05:29:01;27.00;;;18.63;;
40537;SDS011;27925;41.874;12.526;2022-12-29T05:31:26;23.83;;;17.42;;
40537;SDS011;27925;41.874;12.526;2022-12-29T05:33:52;22.88;;;17.63;;
40537;SDS011;27925;41.874;12.526;2022-12-29T05:36:18;25.42;;;17.45;;
40537;SDS011;27925;41.874;12.526;2022-12-29T05:38:44;25.17;;;17.02;;
40537;SDS011;27925;41.874;12.526;2022-12-29T05:41:10;23.40;;;17.13;;
40537;SDS011;27925;41.874;12.526;2022-12-29T05:43:36;23.63;;;16.40;;
40537;SDS011;27925;41.874;12.526;2022-12-29T05:46:02;21.10;;;16.25;;
40537;SDS011;27925;41.874;12.526;2022-12-29T05:48:28;25.67;;;16.25;;
40537;SDS011;27925;41.874;12.526;2022-12-29T05:50:54;21.98;;;16.10;;
40537;SDS011;27925;41.874;12.526;2022-12-29T05:53:19;24.02;;;15.48;;
40537;SDS011;27925;41.874;12.526;2022-12-29T05:55:48;23.95;;;16.40;;
40537;SDS011;27925;41.874;12.526;2022-12-29T05:58:14;23.48;;;15.90;;
40537;SDS011;27925;41.874;12.526;2022-12-29T06:00:41;23.38;;;16.85;;
40537;SDS011;27925;41.874;12.526;2022-12-29T06:03:07;24.70;;;16.80;;
40537;SDS011;27925;41.874;12.526;2022-12-29T06:05:33;23.45;;;16.17;;
40537;SDS011;27925;41.874;12.526;2022-12-29T06:07:58;21.98;;;16.88;;
40537;SDS011;27925;41.874;12.526;2022-12-29T06:10:24;23.27;;;15.05;;
40537;SDS011;27925;41.874;12.526;2022-12-29T06:12:50;23.38;;;16.77;;
40537;SDS011;27925;41.874;12.526;2022-12-29T06:15:16;22.48;;;15.73;;
40537;SDS011;27925;41.874;12.526;2022-12-29T06:17:42;21.20;;;15.98;;
40537;SDS011;27925;41.874;12.526;2022-12-29T06:20:08;23.52;;;16.73;;
40537;SDS011;27925;41.874;12.526;2022-12-29T06:22:34;23.90;;;16.73;;
40537;SDS011;27925;41.874;12.526;2022-12-29T06:25:00;23.13;;;15.88;;
40537;SDS011;27925;41.874;12.526;2022-12-29T06:27:26;23.20;;;17.25;;
40537;SDS011;27925;41.874;12.526;2022-12-29T06:29:53;26.92;;;17.20;;
40537;SDS011;27925;41.874;12.526;2022-12-29T06:32:18;28.52;;;16.98;;
40537;SDS011;27925;41.874;12.526;2022-12-29T06:34:44;23.45;;;16.35;;
40537;SDS011;27925;41.874;12.526;2022-12-29T06:37:10;20.70;;;15.70;;
40537;SDS011;27925;41.874;12.526;2022-12-29T06:39:36;26.70;;;17.25;;
40537;SDS011;27925;41.874;12.526;2022-12-29T06:42:02;27.58;;;16.80;;
40537;SDS011;27925;41.874;12.526;2022-12-29T06:44:27;23.35;;;16.25;;
40537;SDS011;27925;41.874;12.526;2022-12-29T06:46:53;23.45;;;17.10;;
40537;SDS011;27925;41.874;12.526;2022-12-29T06:49:19;26.20;;;17.60;;
40537;SDS011;27925;41.874;12.526;2022-12-29T06:51:45;24.80;;;17.13;;
40537;SDS011;27925;41.874;12.526;2022-12-29T06:54:11;27.50;;;16.77;;
40537;SDS011;27925;41.874;12.526;2022-12-29T06:56:37;23.90;;;16.98;;
40537;SDS011;27925;41.874;12.526;2022-12-29T06:59:03;22.38;;;16.70;;
40537;SDS011;27925;41.874;12.526;2022-12-29T07:01:30;21.10;;;16.15;;
40537;SDS011;27925;41.874;12.526;2022-12-29T07:03:55;24.33;;;17.88;;
40537;SDS011;27925;41.874;12.526;2022-12-29T07:06:22;23.52;;;16.80;;
40537;SDS011;27925;41.874;12.526;2022-12-29T07:08:48;26.65;;;16.23;;
40537;SDS011;27925;41.874;12.526;2022-12-29T07:11:14;23.95;;;16.95;;
40537;SDS011;27925;41.874;12.526;2022-12-29T07:13:40;27.02;;;15.77;;
40537;SDS011;27925;41.874;12.526;2022-12-29T07:16:09;25.55;;;15.70;;
40537;SDS011;27925;41.874;12.526;2022-12-29T07:18:35;25.88;;;15.68;;
40537;SDS011;27925;41.874;12.526;2022-12-29T07:21:01;24.85;;;16.23;;
40537;SDS011;27925;41.874;12.526;2022-12-29T07:23:27;24.25;;;16.45;;
40537;SDS011;27925;41.874;12.526;2022-12-29T07:26:02;24.52;;;16.45;;
40537;SDS011;27925;41.874;12.526;2022-12-29T07:28:31;21.73;;;16.30;;
40537;SDS011;27925;41.874;12.526;2022-12-29T07:30:57;28.73;;;18.15;;
40537;SDS011;27925;41.874;12.526;2022-12-29T07:33:24;24.05;;;16.13;;
40537;SDS011;27925;41.874;12.526;2022-12-29T07:35:50;28.75;;;17.10;;
40537;SDS011;27925;41.874;12.526;2022-12-29T07:38:15;25.52;;;16.27;;
40537;SDS011;27925;41.874;12.526;2022-12-29T07:40:42;28.42;;;16.55;;
40537;SDS011;27925;41.874;12.526;2022-12-29T07:43:08;34.10;;;17.23;;
40537;SDS011;27925;41.874;12.526;2022-12-29T07:45:34;23.85;;;16.50;;
40537;SDS011;27925;41.874;12.526;2022-12-29T07:47:59;25.70;;;17.35;;
40537;SDS011;27925;41.874;12.526;2022-12-29T07:50:27;33.67;;;16.05;;
40537;SDS011;27925;41.874;12.526;2022-12-29T07:52:53;26.70;;;16.30;;
40537;SDS011;27925;41.874;12.526;2022-12-29T07:55:19;30.00;;;16.83;;
40537;SDS011;27925;41.874;12.526;2022-12-29T07:57:44;34.05;;;17.00;;
40537;SDS011;27925;41.874;12.526;2022-12-29T08:00:10;26.15;;;16.48;;
40537;SDS011;27925;41.874;12.526;2022-12-29T08:02:36;33.13;;;17.83;;
40537;SDS011;27925;41.874;12.526;2022-12-29T08:05:02;29.45;;;16.90;;
40537;SDS011;27925;41.874;12.526;2022-12-29T08:07:28;35.50;;;17.35;;
40537;SDS011;27925;41.874;12.526;2022-12-29T08:09:54;33.63;;;17.13;;
40537;SDS011;27925;41.874;12.526;2022-12-29T08:12:19;31.73;;;17.65;;
40537;SDS011;27925;41.874;12.526;2022-12-29T08:14:45;27.70;;;17.13;;
40537;SDS011;27925;41.874;12.526;2022-12-29T08:17:11;29.85;;;17.42;;
40537;SDS011;27925;41.874;12.526;2022-12-29T08:19:37;32.72;;;17.17;;
40537;SDS011;27925;41.874;12.526;2022-12-29T08:22:03;29.25;;;17.50;;
40537;SDS011;27925;41.874;12.526;2022-12-29T08:24:28;31.92;;;16.67;;
40537;SDS011;27925;41.874;12.526;2022-12-29T08:26:54;30.48;;;16.00;;
40537;SDS011;27925;41.874;12.526;2022-12-29T08:29:20;30.40;;;16.23;;
40537;SDS011;27925;41.874;12.526;2022-12-29T08:31:46;28.13;;;17.10;;
40537;SDS011;27925;41.874;12.526;2022-12-29T08:34:14;27.38;;;16.98;;
40537;SDS011;27925;41.874;12.526;2022-12-29T08:36:39;27.38;;;17.17;;
40537;SDS011;27925;41.874;12.526;2022-12-29T08:39:05;29.77;;;16.42;;
40537;SDS011;27925;41.874;12.526;2022-12-29T08:41:31;25.25;;;17.27;;
40537;SDS011;27925;41.874;12.526;2022-12-29T08:43:57;26.52;;;16.70;;
40537;SDS011;27925;41.874;12.526;2022-12-29T08:46:22;35.67;;;16.67;;
40537;SDS011;27925;41.874;12.526;2022-12-29T08:48:48;25.17;;;16.38;;
40537;SDS011;27925;41.874;12.526;2022-12-29T08:51:14;28.25;;;15.73;;
40537;SDS011;27925;41.874;12.526;2022-12-29T08:53:40;32.38;;;15.43;;
40537;SDS011;27925;41.874;12.526;2022-12-29T08:56:05;27.92;;;16.20;;
40537;SDS011;27925;41.874;12.526;2022-12-29T08:58:33;36.47;;;16.77;;
40537;SDS011;27925;41.874;12.526;2022-12-29T09:00:59;17.05;;;10.15;;
40537;SDS011;27925;41.874;12.526;2022-12-29T09:03:25;24.73;;;14.60;;
40537;SDS011;27925;41.874;12.526;2022-12-29T09:05:52;25.15;;;14.00;;
40537;SDS011;27925;41.874;12.526;2022-12-29T09:08:19;29.63;;;15.55;;
40537;SDS011;27925;41.874;12.526;2022-12-29T09:10:45;23.70;;;13.48;;
40537;SDS011;27925;41.874;12.526;2022-12-29T09:13:11;22.73;;;11.85;;
40537;SDS011;27925;41.874;12.526;2022-12-29T09:15:38;26.88;;;12.50;;
40537;SDS011;27925;41.874;12.526;2022-12-29T09:18:05;23.75;;;10.70;;
40537;SDS011;27925;41.874;12.526;2022-12-29T09:20:31;17.40;;;9.60;;
40537;SDS011;27925;41.874;12.526;2022-12-29T09:22:57;21.63;;;9.13;;
40537;SDS011;27925;41.874;12.526;2022-12-29T09:25:23;17.05;;;9.38;;
40537;SDS011;27925;41.874;12.526;2022-12-29T09:27:50;16.50;;;9.40;;
40537;SDS011;27925;41.874;12.526;2022-12-29T09:30:18;22.27;;;10.43;;
40537;SDS011;27925;41.874;12.526;2022-12-29T09:32:44;19.88;;;9.77;;
40537;SDS011;27925;41.874;12.526;2022-12-29T09:35:10;14.77;;;8.30;;
40537;SDS011;27925;41.874;12.526;2022-12-29T09:37:36;21.88;;;9.48;;
40537;SDS011;27925;41.874;12.526;2022-12-29T09:40:03;20.35;;;8.77;;
40537;SDS011;27925;41.874;12.526;2022-12-29T09:45:58;20.40;;;9.00;;
40537;SDS011;27925;41.874;12.526;2022-12-29T09:48:50;17.17;;;8.77;;
40537;SDS011;27925;41.874;12.526;2022-12-29T09:51:24;19.52;;;9.07;;
40537;SDS011;27925;41.874;12.526;2022-12-29T09:53:52;18.35;;;9.20;;
40537;SDS011;27925;41.874;12.526;2022-12-29T09:56:22;17.88;;;8.85;;
40537;SDS011;27925;41.874;12.526;2022-12-29T09:58:54;16.38;;;8.45;;
40537;SDS011;27925;41.874;12.526;2022-12-29T10:03:58;15.50;;;8.07;;
40537;SDS011;27925;41.874;12.526;2022-12-29T10:14:29;14.52;;;6.80;;
40537;SDS011;27925;41.874;12.526;2022-12-29T10:25:52;14.77;;;5.45;;
40537;SDS011;27925;41.874;12.526;2022-12-29T10:28:37;15.75;;;4.70;;
40537;SDS011;27925;41.874;12.526;2022-12-29T10:31:15;11.60;;;4.63;;
40537;SDS011;27925;41.874;12.526;2022-12-29T10:33:48;11.93;;;4.35;;
40537;SDS011;27925;41.874;12.526;2022-12-29T10:36:22;13.20;;;4.95;;
40537;SDS011;27925;41.874;12.526;2022-12-29T10:38:58;13.05;;;4.35;;
40537;SDS011;27925;41.874;12.526;2022-12-29T10:41:31;8.95;;;3.67;;
40537;SDS011;27925;41.874;12.526;2022-12-29T10:43:58;9.55;;;3.85;;
40537;SDS011;27925;41.874;12.526;2022-12-29T10:46:29;12.10;;;4.68;;
40537;SDS011;27925;41.874;12.526;2022-12-29T10:51:30;10.85;;;4.05;;
40537;SDS011;27925;41.874;12.526;2022-12-29T10:56:42;10.88;;;4.22;;
40537;SDS011;27925;41.874;12.526;2022-12-29T11:07:16;22.38;;;5.90;;
40537;SDS011;27925;41.874;12.526;2022-12-29T11:09:43;18.48;;;5.20;;
40537;SDS011;27925;41.874;12.526;2022-12-29T11:14:59;11.65;;;4.68;;
40537;SDS011;27925;41.874;12.526;2022-12-29T11:17:42;13.35;;;4.40;;
40537;SDS011;27925;41.874;12.526;2022-12-29T11:22:57;10.57;;;4.30;;
40537;SDS011;27925;41.874;12.526;2022-12-29T11:25:23;12.55;;;4.85;;
40537;SDS011;27925;41.874;12.526;2022-12-29T11:30:40;12.38;;;4.60;;
40537;SDS011;27925;41.874;12.526;2022-12-29T11:33:08;10.27;;;4.30;;
40537;SDS011;27925;41.874;12.526;2022-12-29T11:35:43;12.50;;;3.92;;
40537;SDS011;27925;41.874;12.526;2022-12-29T11:38:18;11.23;;;4.30;;
40537;SDS011;27925;41.874;12.526;2022-12-29T11:40:49;11.35;;;4.68;;
40537;SDS011;27925;41.874;12.526;2022-12-29T11:43:21;13.48;;;4.65;;
40537;SDS011;27925;41.874;12.526;2022-12-29T11:45:54;10.38;;;4.30;;
40537;SDS011;27925;41.874;12.526;2022-12-29T11:48:21;16.05;;;4.32;;
40537;SDS011;27925;41.874;12.526;2022-12-29T11:50:54;10.13;;;4.28;;
40537;SDS011;27925;41.874;12.526;2022-12-29T11:53:25;8.60;;;3.92;;
40537;SDS011;27925;41.874;12.526;2022-12-29T11:55:58;7.40;;;3.10;;
40537;SDS011;27925;41.874;12.526;2022-12-29T11:58:36;8.45;;;3.30;;
40537;SDS011;27925;41.874;12.526;2022-12-29T12:01:17;8.45;;;3.25;;
40537;SDS011;27925;41.874;12.526;2022-12-29T12:04:15;10.85;;;3.85;;
40537;SDS011;27925;41.874;12.526;2022-12-29T12:06:46;10.98;;;3.80;;
40537;SDS011;27925;41.874;12.526;2022-12-29T12:09:25;8.52;;;3.90;;
40537;SDS011;27925;41.874;12.526;2022-12-29T12:11:56;10.50;;;4.05;;
40537;SDS011;27925;41.874;12.526;2022-12-29T12:14:32;10.95;;;3.45;;
40537;SDS011;27925;41.874;12.526;2022-12-29T12:17:11;10.00;;;3.90;;
40537;SDS011;27925;41.874;12.526;2022-12-29T12:19:48;7.25;;;3.45;;
40537;SDS011;27925;41.874;12.526;2022-12-29T12:22:33;10.98;;;4.00;;
40537;SDS011;27925;41.874;12.526;2022-12-29T12:30:15;12.15;;;3.85;;
40537;SDS011;27925;41.874;12.526;2022-12-29T12:35:44;9.50;;;4.00;;
40537;SDS011;27925;41.874;12.526;2022-12-29T12:46:19;9.68;;;4.10;;
40537;SDS011;27925;41.874;12.526;2022-12-29T12:59:52;9.00;;;4.10;;
40537;SDS011;27925;41.874;12.526;2022-12-29T13:02:37;9.82;;;4.45;;
40537;SDS011;27925;41.874;12.526;2022-12-29T13:12:53;15.50;;;6.72;;
40537;SDS011;27925;41.874;12.526;2022-12-29T13:18:22;11.95;;;5.70;;
40537;SDS011;27925;41.874;12.526;2022-12-29T13:20:53;19.67;;;5.78;;
40537;SDS011;27925;41.874;12.526;2022-12-29T13:23:50;10.93;;;4.70;;
40537;SDS011;27925;41.874;12.526;2022-12-29T13:26:21;10.85;;;5.25;;
40537;SDS011;27925;41.874;12.526;2022-12-29T13:28:55;8.98;;;5.13;;
40537;SDS011;27925;41.874;12.526;2022-12-29T13:37:53;13.70;;;6.22;;
40537;SDS011;27925;41.874;12.526;2022-12-29T13:40:25;9.43;;;5.40;;
40537;SDS011;27925;41.874;12.526;2022-12-29T13:42:53;10.48;;;5.35;;
40537;SDS011;27925;41.874;12.526;2022-12-29T13:45:22;12.40;;;5.78;;
40537;SDS011;27925;41.874;12.526;2022-12-29T13:50:41;12.68;;;6.88;;
40537;SDS011;27925;41.874;12.526;2022-12-29T13:55:54;15.68;;;4.55;;
40537;SDS011;27925;41.874;12.526;2022-12-29T13:59:06;8.13;;;3.95;;
40537;SDS011;27925;41.874;12.526;2022-12-29T14:04:29;18.10;;;5.63;;
40537;SDS011;27925;41.874;12.526;2022-12-29T14:07:04;11.02;;;5.00;;
40537;SDS011;27925;41.874;12.526;2022-12-29T14:09:42;11.00;;;4.72;;
40537;SDS011;27925;41.874;12.526;2022-12-29T14:15:03;14.48;;;5.05;;
40537;SDS011;27925;41.874;12.526;2022-12-29T14:17:35;10.32;;;4.18;;
40537;SDS011;27925;41.874;12.526;2022-12-29T14:20:02;13.82;;;5.05;;
40537;SDS011;27925;41.874;12.526;2022-12-29T14:22:32;10.95;;;5.40;;
40537;SDS011;27925;41.874;12.526;2022-12-29T14:24:58;19.42;;;5.28;;
40537;SDS011;27925;41.874;12.526;2022-12-29T14:29:53;13.02;;;4.78;;
40537;SDS011;27925;41.874;12.526;2022-12-29T14:34:57;12.45;;;5.18;;
40537;SDS011;27925;41.874;12.526;2022-12-29T14:37:25;10.82;;;4.70;;
40537;SDS011;27925;41.874;12.526;2022-12-29T14:42:45;14.00;;;5.20;;
40537;SDS011;27925;41.874;12.526;2022-12-29T14:47:38;12.45;;;5.20;;
